createdAt,value
2023-05-09T00:01:52.381Z,25.60
2023-05-09T00:04:20.151Z,25.60
2023-05-09T00:06:47.856Z,25.70
2023-05-09T00:09:16.877Z,25.60
2023-05-09T00:11:44.644Z,25.60
2023-05-09T00:14:13.862Z,25.60
2023-05-09T00:16:41.569Z,25.60
2023-05-09T00:19:09.980Z,25.60
2023-05-09T00:21:37.639Z,25.60
2023-05-09T00:24:05.978Z,25.60
2023-05-09T00:26:34.948Z,25.60
2023-05-09T00:29:02.628Z,25.60
2023-05-09T00:31:30.371Z,25.50
2023-05-09T00:33:58.074Z,25.50
2023-05-09T00:36:25.841Z,25.50
2023-05-09T00:38:53.533Z,25.50
2023-05-09T00:41:21.399Z,25.50
2023-05-09T00:43:50.400Z,25.50
2023-05-09T00:46:18.201Z,25.50
2023-05-09T00:48:46.493Z,25.50
2023-05-09T00:51:14.199Z,25.50
2023-05-09T00:53:41.947Z,25.50
2023-05-09T00:56:09.623Z,25.50
2023-05-09T00:58:37.306Z,25.50
2023-05-09T01:01:06.636Z,25.50
2023-05-09T01:03:34.737Z,25.50
2023-05-09T01:06:04.281Z,25.40
2023-05-09T01:08:38.552Z,25.40
2023-05-09T01:11:10.277Z,25.40
2023-05-09T01:13:39.466Z,25.40
2023-05-09T01:16:10.874Z,25.40
2023-05-09T01:18:41.280Z,25.40
2023-05-09T01:21:11.268Z,25.40
2023-05-09T01:24:01.951Z,25.40
2023-05-09T01:26:37.502Z,25.40
2023-05-09T01:29:32.914Z,25.40
2023-05-09T01:32:00.972Z,25.40
2023-05-09T01:34:28.807Z,25.40
2023-05-09T01:36:57.313Z,25.30
2023-05-09T01:39:25.197Z,25.30
2023-05-09T01:41:53.106Z,25.30
2023-05-09T01:44:20.817Z,25.30
2023-05-09T01:46:50.007Z,25.30
2023-05-09T01:49:17.705Z,25.30
2023-05-09T01:51:45.418Z,25.30
2023-05-09T01:54:13.100Z,25.30
2023-05-09T01:56:40.910Z,25.30
2023-05-09T01:59:08.627Z,25.30
2023-05-09T02:01:36.293Z,25.30
2023-05-09T02:04:05.308Z,25.20
2023-05-09T02:06:33.010Z,25.20
2023-05-09T02:09:00.750Z,25.20
2023-05-09T02:11:28.428Z,25.20
2023-05-09T02:13:56.202Z,25.20
2023-05-09T02:16:23.936Z,25.20
2023-05-09T02:18:52.642Z,25.20
2023-05-09T02:21:21.782Z,25.20
2023-05-09T02:23:49.878Z,25.20
2023-05-09T02:26:17.556Z,25.20
2023-05-09T02:28:45.446Z,25.20
2023-05-09T02:31:13.360Z,25.20
2023-05-09T02:33:41.052Z,25.20
2023-05-09T02:36:10.169Z,25.20
2023-05-09T02:38:39.134Z,25.20
2023-05-09T02:41:07.180Z,25.10
2023-05-09T02:43:34.845Z,25.10
2023-05-09T02:46:02.539Z,25.10
2023-05-09T02:48:30.359Z,25.10
2023-05-09T02:50:58.286Z,25.10
2023-05-09T02:53:25.953Z,25.10
2023-05-09T02:55:54.977Z,25.10
2023-05-09T02:58:22.682Z,25.10
2023-05-09T03:00:50.858Z,25.00
2023-05-09T03:03:19.057Z,25.10
2023-05-09T03:05:47.027Z,25.10
2023-05-09T03:08:14.692Z,25.00
2023-05-09T03:10:42.369Z,25.00
2023-05-09T03:13:11.437Z,25.00
2023-05-09T03:15:39.219Z,25.00
2023-05-09T03:18:08.661Z,25.00
2023-05-09T03:20:36.388Z,24.90
2023-05-09T03:23:04.788Z,24.90
2023-05-09T03:25:32.792Z,25.00
2023-05-09T03:28:00.471Z,24.90
2023-05-09T03:30:29.820Z,24.90
2023-05-09T03:32:58.124Z,24.90
2023-05-09T03:35:26.129Z,24.90
2023-05-09T03:37:55.324Z,24.90
2023-05-09T03:40:23.031Z,24.90
2023-05-09T03:42:58.248Z,24.90
2023-05-09T03:45:26.988Z,24.90
2023-05-09T03:47:56.090Z,24.90
2023-05-09T03:50:24.267Z,24.90
2023-05-09T03:52:55.095Z,24.90
2023-05-09T03:55:23.712Z,24.90
2023-05-09T03:57:51.392Z,24.90
2023-05-09T04:00:19.942Z,24.90
2023-05-09T04:02:57.217Z,24.90
2023-05-09T04:05:36.661Z,24.90
2023-05-09T04:08:06.495Z,24.80
2023-05-09T04:10:34.562Z,24.80
2023-05-09T04:13:02.850Z,24.80
2023-05-09T04:15:30.929Z,24.80
2023-05-09T04:18:00.769Z,24.80
2023-05-09T04:20:28.789Z,24.80
2023-05-09T04:22:56.694Z,24.80
2023-05-09T04:25:24.490Z,24.80
2023-05-09T04:27:52.173Z,24.80
2023-05-09T04:30:21.119Z,24.80
2023-05-09T04:32:48.975Z,24.80
2023-05-09T04:35:20.504Z,24.80
2023-05-09T04:37:49.671Z,24.80
2023-05-09T04:40:18.058Z,24.80
2023-05-09T04:42:53.437Z,24.80
2023-05-09T04:45:24.244Z,24.80
2023-05-09T04:47:52.237Z,24.80
2023-05-09T04:50:21.422Z,24.80
2023-05-09T04:52:49.143Z,24.70
2023-05-09T04:55:17.215Z,24.70
2023-05-09T04:57:48.187Z,24.70
2023-05-09T05:00:17.673Z,24.70
2023-05-09T05:02:47.661Z,24.70
2023-05-09T05:05:15.452Z,24.60
2023-05-09T05:07:45.771Z,24.60
2023-05-09T05:10:19.744Z,24.60
2023-05-09T05:12:51.464Z,24.60
2023-05-09T05:15:20.230Z,24.60
2023-05-09T05:17:49.313Z,24.60
2023-05-09T05:20:21.084Z,24.60
2023-05-09T05:22:50.159Z,24.60
2023-05-09T05:25:18.833Z,24.60
2023-05-09T05:27:48.675Z,24.50
2023-05-09T05:30:17.153Z,24.50
2023-05-09T05:32:45.013Z,24.50
2023-05-09T05:35:14.732Z,24.50
2023-05-09T05:37:43.554Z,24.50
2023-05-09T05:40:13.823Z,24.50
2023-05-09T05:42:46.537Z,24.50
2023-05-09T05:45:14.346Z,24.50
2023-05-09T05:47:46.585Z,24.50
2023-05-09T05:50:15.107Z,24.50
2023-05-09T05:52:43.595Z,24.50
2023-05-09T05:55:16.165Z,24.50
2023-05-09T05:57:44.165Z,24.50
2023-05-09T06:00:16.372Z,24.50
2023-05-09T06:02:57.252Z,24.40
2023-05-09T06:05:34.554Z,24.50
2023-05-09T06:08:02.278Z,24.50
2023-05-09T06:10:31.485Z,24.50
2023-05-09T06:12:59.521Z,24.50
2023-05-09T06:15:27.275Z,24.50
2023-05-09T06:17:55.835Z,24.40
2023-05-09T06:20:23.573Z,24.50
2023-05-09T06:22:51.525Z,24.40
2023-05-09T06:25:20.007Z,24.40
2023-05-09T06:27:49.081Z,24.40
2023-05-09T06:30:26.236Z,24.40
2023-05-09T06:32:54.891Z,24.40
2023-05-09T06:35:22.791Z,24.40
2023-05-09T06:37:50.560Z,24.40
2023-05-09T06:40:18.313Z,24.50
2023-05-09T06:42:46.115Z,24.50
2023-05-09T06:45:15.398Z,24.50
2023-05-09T06:47:43.365Z,24.50
2023-05-09T06:50:11.204Z,24.50
2023-05-09T06:52:39.057Z,24.50
2023-05-09T06:55:08.429Z,24.50
2023-05-09T06:57:36.229Z,24.50
2023-05-09T07:00:05.295Z,24.50
2023-05-09T07:02:34.472Z,24.40
2023-05-09T07:05:02.315Z,24.50
2023-05-09T07:07:30.059Z,24.50
2023-05-09T07:10:07.333Z,24.40
2023-05-09T07:12:38.749Z,24.50
2023-05-09T07:15:07.593Z,24.50
2023-05-09T07:17:36.720Z,24.50
2023-05-09T07:20:05.396Z,24.50
2023-05-09T07:22:34.762Z,24.50
2023-05-09T07:25:04.379Z,24.50
2023-05-09T07:27:32.044Z,24.50
2023-05-09T07:29:59.754Z,24.50
2023-05-09T07:32:28.666Z,24.50
2023-05-09T07:34:57.854Z,24.50
2023-05-09T07:37:25.572Z,24.50
2023-05-09T07:39:53.200Z,24.50
2023-05-09T07:42:20.886Z,24.60
2023-05-09T07:44:48.554Z,24.60
2023-05-09T07:47:16.254Z,24.60
2023-05-09T07:49:46.398Z,24.60
2023-05-09T07:52:17.145Z,24.60
2023-05-09T07:54:44.875Z,24.70
2023-05-09T07:57:12.703Z,24.60
2023-05-09T07:59:40.436Z,24.70
2023-05-09T08:02:08.180Z,24.70
2023-05-09T08:04:37.738Z,24.70
2023-05-09T08:07:05.644Z,24.70
2023-05-09T08:09:34.707Z,24.70
2023-05-09T08:12:02.443Z,24.70
2023-05-09T08:14:30.623Z,24.80
2023-05-09T08:16:58.317Z,24.70
2023-05-09T08:19:26.342Z,24.80
2023-05-09T08:21:54.183Z,24.80
2023-05-09T08:24:21.900Z,24.80
2023-05-09T08:26:51.010Z,24.80
2023-05-09T08:29:18.856Z,24.80
2023-05-09T08:31:46.576Z,24.80
2023-05-09T08:34:14.281Z,24.80
2023-05-09T08:36:42.022Z,24.80
2023-05-09T08:39:10.366Z,24.80
2023-05-09T08:41:38.100Z,24.80
2023-05-09T08:44:07.301Z,24.90
2023-05-09T08:46:37.708Z,24.90
2023-05-09T08:49:06.731Z,24.90
2023-05-09T08:51:34.965Z,24.90
2023-05-09T08:54:02.648Z,24.90
2023-05-09T08:56:30.875Z,24.90
2023-05-09T08:58:58.937Z,24.90
2023-05-09T09:01:28.175Z,25.00
2023-05-09T09:03:55.903Z,25.00
2023-05-09T09:06:25.634Z,25.00
2023-05-09T09:08:53.509Z,25.00
2023-05-09T09:11:22.410Z,25.00
2023-05-09T09:13:50.910Z,25.00
2023-05-09T09:16:20.966Z,25.00
2023-05-09T09:18:50.513Z,25.00
2023-05-09T09:21:18.190Z,25.00
2023-05-09T09:23:47.365Z,25.00
2023-05-09T09:26:15.091Z,25.00
2023-05-09T09:28:42.880Z,25.00
2023-05-09T09:31:28.773Z,25.00
2023-05-09T09:34:02.029Z,25.10
2023-05-09T09:36:29.937Z,25.10
2023-05-09T09:38:58.105Z,25.10
2023-05-09T09:41:31.569Z,25.10
2023-05-09T09:43:59.256Z,25.10
2023-05-09T09:46:27.150Z,25.10
2023-05-09T09:48:57.585Z,25.10
2023-05-09T09:51:28.797Z,25.20
2023-05-09T09:53:56.835Z,25.20
2023-05-09T09:56:38.935Z,25.20
2023-05-09T09:59:10.722Z,25.20
2023-05-09T10:01:53.934Z,25.20
2023-05-09T10:04:21.649Z,25.20
2023-05-09T10:07:00.229Z,25.20
2023-05-09T10:09:28.535Z,25.20
2023-05-09T10:11:56.770Z,25.20
2023-05-09T10:14:25.119Z,25.20
2023-05-09T10:16:53.844Z,25.20
2023-05-09T10:19:22.809Z,25.30
2023-05-09T10:21:52.974Z,25.30
2023-05-09T10:24:24.313Z,25.30
2023-05-09T10:26:51.998Z,25.30
2023-05-09T10:29:22.789Z,25.30
2023-05-09T10:31:50.856Z,25.40
2023-05-09T10:34:18.587Z,25.40
2023-05-09T10:36:46.254Z,25.40
2023-05-09T10:39:13.987Z,25.40
2023-05-09T10:41:42.991Z,25.40
2023-05-09T10:44:10.714Z,25.40
2023-05-09T10:46:38.492Z,25.40
2023-05-09T10:49:06.416Z,25.50
2023-05-09T10:51:34.573Z,25.50
2023-05-09T10:54:02.346Z,25.50
2023-05-09T10:56:31.789Z,25.60
2023-05-09T10:59:01.119Z,25.50
2023-05-09T11:01:34.732Z,25.50
2023-05-09T11:04:03.852Z,25.60
2023-05-09T11:06:41.542Z,25.60
2023-05-09T11:09:25.720Z,25.60
2023-05-09T11:11:53.691Z,25.60
2023-05-09T11:14:32.907Z,25.60
2023-05-09T11:17:01.374Z,25.60
2023-05-09T11:19:36.362Z,25.60
2023-05-09T11:22:12.730Z,25.60
2023-05-09T11:24:40.493Z,25.60
2023-05-09T11:27:15.930Z,25.60
2023-05-09T11:29:51.967Z,25.60
2023-05-09T11:32:20.049Z,25.60
2023-05-09T11:34:47.839Z,25.60
2023-05-09T11:37:17.562Z,25.60
2023-05-09T11:39:58.925Z,25.60
2023-05-09T11:42:26.991Z,25.60
2023-05-09T11:44:56.767Z,25.60
2023-05-09T11:47:24.644Z,25.60
2023-05-09T11:49:52.451Z,25.60
2023-05-09T11:52:21.796Z,25.60
2023-05-09T11:54:49.701Z,25.60
2023-05-09T11:57:17.978Z,25.60
2023-05-09T11:59:46.241Z,25.60
2023-05-09T12:02:15.381Z,25.60
2023-05-09T12:04:44.102Z,25.60
2023-05-09T12:07:12.788Z,25.60
2023-05-09T12:09:40.664Z,25.60
2023-05-09T12:12:12.592Z,25.60
2023-05-09T12:14:40.877Z,25.70
2023-05-09T12:17:08.691Z,25.60
2023-05-09T12:19:37.760Z,25.60
2023-05-09T12:22:06.778Z,25.70
2023-05-09T12:24:36.698Z,25.70
2023-05-09T12:27:04.762Z,25.70
2023-05-09T12:29:32.573Z,25.70
2023-05-09T12:32:00.530Z,25.70
2023-05-09T12:34:28.269Z,25.70
2023-05-09T12:36:59.892Z,25.70
2023-05-09T12:39:27.624Z,25.70
2023-05-09T12:42:01.532Z,25.70
2023-05-09T12:44:30.333Z,25.70
2023-05-09T12:46:58.870Z,25.70
2023-05-09T12:49:26.633Z,25.70
2023-05-09T12:51:54.971Z,25.70
2023-05-09T12:54:24.448Z,25.70
2023-05-09T12:56:56.658Z,25.70
2023-05-09T12:59:24.773Z,25.70
2023-05-09T13:01:53.508Z,25.70
2023-05-09T13:04:21.358Z,25.70
2023-05-09T13:06:50.177Z,25.70
2023-05-09T13:09:18.566Z,25.70
2023-05-09T13:11:47.753Z,25.70
2023-05-09T13:14:15.677Z,25.70
2023-05-09T13:16:43.900Z,25.70
2023-05-09T13:19:11.842Z,25.70
2023-05-09T13:21:39.624Z,25.70
2023-05-09T13:24:07.862Z,25.70
2023-05-09T13:26:35.744Z,25.70
2023-05-09T13:29:04.799Z,25.70
2023-05-09T13:31:32.597Z,25.60
2023-05-09T13:34:00.366Z,25.60
2023-05-09T13:36:28.161Z,25.50
2023-05-09T13:38:55.908Z,25.50
2023-05-09T13:41:24.097Z,25.50
2023-05-09T13:43:52.135Z,25.30
2023-05-09T13:46:21.197Z,25.30
2023-05-09T13:48:48.904Z,25.30
2023-05-09T13:51:16.651Z,25.20
2023-05-09T13:53:44.377Z,25.20
2023-05-09T13:56:12.128Z,25.20
2023-05-09T13:58:39.846Z,25.10
2023-05-09T14:01:07.982Z,25.10
2023-05-09T14:03:37.224Z,25.20
2023-05-09T14:06:05.629Z,25.10
2023-05-09T14:08:34.124Z,25.10
2023-05-09T14:11:03.026Z,25.20
2023-05-09T14:13:32.069Z,25.10
2023-05-09T14:16:00.804Z,25.10
2023-05-09T14:18:29.378Z,25.00
2023-05-09T14:20:58.905Z,25.00
2023-05-09T14:23:27.185Z,25.00
2023-05-09T14:25:55.511Z,25.00
2023-05-09T14:28:24.082Z,24.90
2023-05-09T14:30:52.349Z,24.90
2023-05-09T14:33:20.608Z,24.90
2023-05-09T14:35:48.966Z,24.90
2023-05-09T14:38:18.594Z,24.80
2023-05-09T14:40:46.849Z,24.80
2023-05-09T14:43:15.977Z,24.80
2023-05-09T14:45:44.398Z,24.80
2023-05-09T14:48:15.868Z,24.80
2023-05-09T14:50:44.663Z,24.80
2023-05-09T14:53:13.554Z,24.80
2023-05-09T14:55:43.656Z,24.80
2023-05-09T14:58:13.549Z,24.80
2023-05-09T15:00:42.170Z,24.80
2023-05-09T15:03:10.978Z,24.80
2023-05-09T15:05:39.349Z,25.10
2023-05-09T15:08:07.882Z,25.20
2023-05-09T15:10:36.168Z,25.40
2023-05-09T15:13:05.925Z,25.40
2023-05-09T15:15:34.329Z,25.50
2023-05-09T15:18:03.361Z,25.60
2023-05-09T15:20:31.682Z,25.50
2023-05-09T15:22:59.832Z,25.50
2023-05-09T15:25:27.715Z,25.40
2023-05-09T15:27:55.854Z,25.40
2023-05-09T15:30:24.869Z,25.40
2023-05-09T15:32:52.775Z,25.40
2023-05-09T15:35:20.875Z,25.50
2023-05-09T15:37:48.615Z,25.50
2023-05-09T15:40:16.673Z,25.60
2023-05-09T15:42:44.520Z,25.60
2023-05-09T15:45:12.581Z,25.60
2023-05-09T15:47:41.847Z,25.60
2023-05-09T15:50:10.125Z,25.70
2023-05-09T15:52:38.007Z,25.70
2023-05-09T15:55:06.783Z,25.70
2023-05-09T15:57:34.654Z,25.70
2023-05-09T16:00:02.404Z,25.70
2023-05-09T16:02:43.970Z,25.70
2023-05-09T16:05:12.055Z,25.70
2023-05-09T16:07:39.881Z,25.70
2023-05-09T16:10:08.673Z,25.70
2023-05-09T16:12:36.417Z,25.70
2023-05-09T16:15:04.398Z,25.60
2023-05-09T16:17:32.429Z,25.60
2023-05-09T16:20:01.906Z,25.60
2023-05-09T16:22:29.712Z,25.60
2023-05-09T16:24:57.372Z,25.60
2023-05-09T16:27:25.042Z,25.60
2023-05-09T16:29:52.721Z,25.60
2023-05-09T16:32:20.398Z,25.60
2023-05-09T16:34:48.990Z,25.60
2023-05-09T16:37:18.829Z,25.60
2023-05-09T16:39:46.550Z,25.50
2023-05-09T16:42:14.325Z,25.50
2023-05-09T16:44:42.030Z,25.50
2023-05-09T16:47:09.803Z,25.50
2023-05-09T16:49:37.559Z,25.50
2023-05-09T16:52:05.612Z,25.50
2023-05-09T16:54:34.785Z,25.40
2023-05-09T16:57:03.160Z,25.40
2023-05-09T16:59:30.891Z,25.40
2023-05-09T17:01:58.686Z,25.40
2023-05-09T17:04:26.554Z,25.30
2023-05-09T17:06:54.350Z,25.30
2023-05-09T17:09:22.274Z,25.30
2023-05-09T17:11:51.790Z,25.20
2023-05-09T17:14:19.632Z,25.20
2023-05-09T17:16:47.432Z,25.20
2023-05-09T17:19:16.433Z,25.20
2023-05-09T17:21:44.243Z,25.20
2023-05-09T17:24:12.069Z,25.10
2023-05-09T17:26:39.780Z,25.10
2023-05-09T17:29:09.416Z,25.10
2023-05-09T17:31:37.277Z,25.10
2023-05-09T17:34:05.554Z,25.00
2023-05-09T17:36:33.434Z,25.00
2023-05-09T17:39:01.191Z,25.00
2023-05-09T17:41:28.881Z,25.00
2023-05-09T17:43:57.348Z,24.90
2023-05-09T17:46:27.179Z,24.90
2023-05-09T17:48:54.951Z,24.90
2023-05-09T17:51:22.694Z,24.90
2023-05-09T17:53:50.411Z,24.90
2023-05-09T17:56:18.134Z,24.80
2023-05-09T17:58:47.091Z,24.80
2023-05-09T18:01:15.535Z,24.80
2023-05-09T18:03:44.716Z,24.80
2023-05-09T18:06:12.650Z,24.80
2023-05-09T18:08:40.377Z,24.80
2023-05-09T18:11:08.051Z,24.70
2023-05-09T18:13:35.791Z,24.70
2023-05-09T18:16:03.522Z,24.70
2023-05-09T18:18:32.336Z,24.70
2023-05-09T18:21:01.393Z,24.70
2023-05-09T18:23:29.058Z,24.70
2023-05-09T18:25:56.816Z,24.60
2023-05-09T18:28:25.569Z,24.60
2023-05-09T18:30:54.278Z,24.60
2023-05-09T18:33:22.911Z,24.60
2023-05-09T18:35:50.600Z,24.60
2023-05-09T18:38:19.804Z,24.60
2023-05-09T18:40:48.139Z,24.50
2023-05-09T18:43:16.504Z,24.50
2023-05-09T18:45:47.830Z,24.50
2023-05-09T18:48:16.129Z,24.50
2023-05-09T18:50:44.070Z,24.50
2023-05-09T18:53:11.787Z,24.50
2023-05-09T18:55:41.231Z,24.50
2023-05-09T18:58:09.064Z,24.50
2023-05-09T19:00:39.298Z,24.50
2023-05-09T19:03:07.171Z,24.50
2023-05-09T19:05:34.881Z,24.50
2023-05-09T19:08:03.564Z,24.50
2023-05-09T19:10:32.047Z,24.50
2023-05-09T19:13:01.580Z,24.40
2023-05-09T19:15:30.118Z,24.40
2023-05-09T19:17:57.968Z,24.40
2023-05-09T19:20:26.210Z,24.40
2023-05-09T19:22:53.895Z,24.40
2023-05-09T19:25:21.717Z,24.40
2023-05-09T19:27:49.459Z,24.30
2023-05-09T19:30:19.391Z,24.40
2023-05-09T19:32:47.153Z,24.40
2023-05-09T19:35:14.885Z,24.30
2023-05-09T19:37:42.633Z,24.30
2023-05-09T19:40:11.357Z,24.30
2023-05-09T19:42:39.218Z,24.30
2023-05-09T19:45:07.680Z,24.30
2023-05-09T19:47:36.841Z,24.30
2023-05-09T19:50:05.082Z,24.30
2023-05-09T19:52:32.820Z,24.30
2023-05-09T19:55:01.274Z,24.20
2023-05-09T19:57:28.957Z,24.30
2023-05-09T19:59:58.099Z,24.30
2023-05-09T20:02:25.955Z,24.30
2023-05-09T20:04:55.088Z,24.20
2023-05-09T20:07:22.808Z,24.20
2023-05-09T20:09:50.497Z,24.20
2023-05-09T20:12:18.211Z,24.20
2023-05-09T20:14:46.013Z,24.20
2023-05-09T20:17:13.747Z,24.20
2023-05-09T20:19:41.430Z,24.20
2023-05-09T20:22:10.468Z,24.20
2023-05-09T20:24:38.145Z,24.20
2023-05-09T20:27:05.853Z,24.20
2023-05-09T20:29:33.703Z,24.10
2023-05-09T20:32:01.540Z,24.10
2023-05-09T20:34:29.293Z,24.10
2023-05-09T20:36:56.994Z,24.10
2023-05-09T20:39:26.812Z,24.10
2023-05-09T20:41:55.734Z,24.10
2023-05-09T20:44:23.446Z,24.10
2023-05-09T20:46:51.158Z,24.00
2023-05-09T20:49:19.050Z,24.00
2023-05-09T20:51:46.743Z,24.10
2023-05-09T20:54:14.485Z,24.00
2023-05-09T20:56:43.791Z,24.00
2023-05-09T20:59:11.459Z,24.00
2023-05-09T21:01:40.258Z,24.00
2023-05-09T21:04:08.542Z,24.00
2023-05-09T21:06:36.409Z,24.00
2023-05-09T21:09:05.199Z,24.00
2023-05-09T21:11:32.893Z,24.00
2023-05-09T21:14:02.020Z,24.00
2023-05-09T21:16:29.839Z,24.00
2023-05-09T21:18:58.514Z,24.00
2023-05-09T21:21:26.227Z,23.90
2023-05-09T21:23:53.876Z,24.00
2023-05-09T21:26:23.016Z,24.00
2023-05-09T21:28:51.044Z,24.00
2023-05-09T21:31:20.075Z,24.00
2023-05-09T21:33:47.796Z,23.90
2023-05-09T21:36:15.493Z,23.90
2023-05-09T21:38:43.191Z,23.90
2023-05-09T21:41:10.990Z,23.90
2023-05-09T21:43:38.667Z,23.90
2023-05-09T21:46:06.723Z,23.90
2023-05-09T21:48:35.865Z,23.90
2023-05-09T21:51:03.606Z,23.80
2023-05-09T21:53:31.329Z,23.90
2023-05-09T21:55:59.020Z,23.90
2023-05-09T21:58:26.726Z,23.90
2023-05-09T22:00:54.438Z,23.80
2023-05-09T22:03:22.235Z,23.80
2023-05-09T22:05:51.245Z,23.80
2023-05-09T22:08:18.954Z,23.80
2023-05-09T22:10:46.926Z,23.80
2023-05-09T22:13:14.897Z,23.80
2023-05-09T22:15:43.106Z,23.70
2023-05-09T22:18:11.371Z,23.80
2023-05-09T22:20:39.038Z,23.70
2023-05-09T22:23:08.423Z,23.70
2023-05-09T22:25:36.287Z,23.70
2023-05-09T22:28:04.081Z,23.70
2023-05-09T22:30:31.824Z,23.80
2023-05-09T22:33:00.803Z,23.70
2023-05-09T22:35:28.515Z,23.70
2023-05-09T22:37:56.521Z,23.70
2023-05-09T22:40:26.327Z,23.70
2023-05-09T22:42:54.161Z,23.70
2023-05-09T22:45:22.130Z,23.70
2023-05-09T22:47:49.850Z,23.60
2023-05-09T22:50:17.857Z,23.60
2023-05-09T22:52:45.752Z,23.70
2023-05-09T22:55:13.986Z,23.60
2023-05-09T22:57:43.010Z,23.60
2023-05-09T23:00:11.814Z,23.60
2023-05-09T23:02:39.686Z,23.60
2023-05-09T23:05:08.676Z,23.60
2023-05-09T23:07:36.378Z,23.60
2023-05-09T23:10:04.398Z,23.60
2023-05-09T23:12:32.076Z,23.60
2023-05-09T23:15:01.054Z,23.60
2023-05-09T23:17:28.807Z,23.60
2023-05-09T23:19:56.661Z,23.60
2023-05-09T23:22:24.312Z,23.60
2023-05-09T23:24:51.993Z,23.60
2023-05-09T23:27:19.634Z,23.50
2023-05-09T23:29:47.311Z,23.50
2023-05-09T23:32:16.358Z,23.50
2023-05-09T23:34:44.040Z,23.50
2023-05-09T23:37:11.833Z,23.50
2023-05-09T23:39:39.514Z,23.50
2023-05-09T23:42:08.069Z,23.50
2023-05-09T23:44:35.808Z,23.50
2023-05-09T23:47:03.695Z,23.50
2023-05-09T23:49:32.748Z,23.50
2023-05-09T23:52:00.398Z,23.50
2023-05-09T23:54:28.701Z,23.40
2023-05-09T23:56:57.713Z,23.40
2023-05-09T23:59:25.370Z,23.40
